Aviation Digital Data Service (ADDS)

Output produced by METARs form (1351 UTC 27 June 2017)
found at http://aviationweather.gov/adds/metars/
 
KCLT 271123Z 2712/2812 VRB04KT P6SM FEW060 BKN250 
     FM271400 02006KT P6SM SCT070 
     FM272000 01005KT P6SM SCT150